Greater Binghamton,Edwin A Link field Binghamton US
ICAO: KBGM
IATA: BGM
Category: Medium
Scheduled Services: Yes

Elevation: 1636 ft
TransAlt. 18000 ft.

Airport Communications:
APP/DEP:118.6
ATIS:128.15
CLNC DEL:125.05
CTAF:119.3
GND:121.9
BUFFALO RDO:112.2
TWR:119.3
UNICOM:122.95

KBGM Zoom In..

Runways:

(A) RW 10 length 5001 ft width 150 ft
---- / hdg 98

(B) RW 16 length 7304 ft width 150 ft
ILS 110.30 / hdg 160

(C) RW 28 length 5001 ft width 150 ft
---- / hdg 278

(D) RW 34 length 7304 ft width 150 ft
ILS 110.30 / hdg 340

Location; KBGM
Day. 20 / Time. 16.53 Zulu
* Altimeter: 30.02
* Temperature: 16° c. 60.8°f.
* Wind from: 310° Speed 10 kn with Gusts up to 18 kn.
Dewpoint: 13° c.
Visibility: 10 Statute Miles.
Clouds: Broken 1100 ft.
Clouds: Overcast 1400 ft.

KBGM 201653Z 31010G18KT 10SM BKN011 OVC014 16/13 A3002 RMK AO2 SLP162 T01560133


Wind From 310°
Speed 10 kn.

 
 
jpsmedia.com for Web Design SOUNDCLOUD worldairports.se 2018   terms of use